In Rescue
 
Open Full Screen Window  High Contrast Mode
January 17, 2021 2:18 PM EST
Weather Information
Wind Direction
  ---
Wind Speed
  00 kt (0 mph)
Wind Gust
  00 kt (0 mph)
Altimeter
29.63 in
Visibility
10 SM
Temperature
-01° C
30° F
Dewpoint
-05° C
23° F
Humidity
75%
Sky Condition
Overcast @ 2,000 ft
MVFR

METAR KMGN 171918Z AUTO 00000KT 10SM OVC020 M01/M05 A2963 RMK AO2 T10101050

FAA Disclaimer: The data displayed is for advisory purposes only and is not to be used for flight planning or operations.